sensor_id;sensor_type;location;lat;lon;timestamp;P1;durP1;ratioP1;P2;durP2;ratioP2
6928;SDS011;3504;52.616;13.238;2023-11-22T00:02:37;8.30;;;6.00;;
6928;SDS011;3504;52.616;13.238;2023-11-22T00:07:37;9.23;;;6.43;;
6928;SDS011;3504;52.616;13.238;2023-11-22T00:12:38;9.63;;;6.00;;
6928;SDS011;3504;52.616;13.238;2023-11-22T00:17:39;10.07;;;6.23;;
6928;SDS011;3504;52.616;13.238;2023-11-22T00:22:39;8.13;;;5.63;;
6928;SDS011;3504;52.616;13.238;2023-11-22T00:27:40;10.03;;;6.00;;
6928;SDS011;3504;52.616;13.238;2023-11-22T00:32:41;9.83;;;6.30;;
6928;SDS011;3504;52.616;13.238;2023-11-22T00:37:42;10.63;;;5.87;;
6928;SDS011;3504;52.616;13.238;2023-11-22T00:42:43;8.43;;;5.20;;
6928;SDS011;3504;52.616;13.238;2023-11-22T00:47:44;9.60;;;6.17;;
6928;SDS011;3504;52.616;13.238;2023-11-22T00:52:45;10.40;;;6.67;;
6928;SDS011;3504;52.616;13.238;2023-11-22T00:57:47;9.43;;;6.37;;
6928;SDS011;3504;52.616;13.238;2023-11-22T01:02:47;10.20;;;5.90;;
6928;SDS011;3504;52.616;13.238;2023-11-22T01:07:48;10.63;;;5.83;;
6928;SDS011;3504;52.616;13.238;2023-11-22T01:12:48;10.23;;;6.63;;
6928;SDS011;3504;52.616;13.238;2023-11-22T01:17:49;9.60;;;5.93;;
6928;SDS011;3504;52.616;13.238;2023-11-22T01:22:49;9.33;;;5.80;;
6928;SDS011;3504;52.616;13.238;2023-11-22T01:27:50;9.17;;;6.23;;
6928;SDS011;3504;52.616;13.238;2023-11-22T01:32:50;9.33;;;5.60;;
6928;SDS011;3504;52.616;13.238;2023-11-22T01:37:51;11.30;;;5.67;;
6928;SDS011;3504;52.616;13.238;2023-11-22T01:42:51;8.37;;;5.87;;
6928;SDS011;3504;52.616;13.238;2023-11-22T01:47:54;10.57;;;6.70;;
6928;SDS011;3504;52.616;13.238;2023-11-22T01:52:55;9.57;;;6.13;;
6928;SDS011;3504;52.616;13.238;2023-11-22T01:57:56;11.47;;;6.73;;
6928;SDS011;3504;52.616;13.238;2023-11-22T02:02:57;10.33;;;6.43;;
6928;SDS011;3504;52.616;13.238;2023-11-22T02:07:57;13.60;;;6.30;;
6928;SDS011;3504;52.616;13.238;2023-11-22T02:12:58;9.10;;;6.00;;
6928;SDS011;3504;52.616;13.238;2023-11-22T02:17:59;11.93;;;6.03;;
6928;SDS011;3504;52.616;13.238;2023-11-22T02:23:09;11.80;;;6.83;;
6928;SDS011;3504;52.616;13.238;2023-11-22T02:28:11;14.10;;;6.47;;
6928;SDS011;3504;52.616;13.238;2023-11-22T02:33:12;10.73;;;6.70;;
6928;SDS011;3504;52.616;13.238;2023-11-22T02:38:12;11.90;;;6.60;;
6928;SDS011;3504;52.616;13.238;2023-11-22T02:43:14;10.73;;;6.70;;
6928;SDS011;3504;52.616;13.238;2023-11-22T02:48:15;9.23;;;6.53;;
6928;SDS011;3504;52.616;13.238;2023-11-22T02:53:15;12.23;;;7.23;;
6928;SDS011;3504;52.616;13.238;2023-11-22T02:58:17;12.27;;;7.40;;
6928;SDS011;3504;52.616;13.238;2023-11-22T03:03:17;11.17;;;6.90;;
6928;SDS011;3504;52.616;13.238;2023-11-22T03:08:18;11.83;;;7.10;;
6928;SDS011;3504;52.616;13.238;2023-11-22T03:13:18;12.43;;;7.53;;
6928;SDS011;3504;52.616;13.238;2023-11-22T03:18:19;13.27;;;6.97;;
6928;SDS011;3504;52.616;13.238;2023-11-22T03:23:20;10.37;;;7.00;;
6928;SDS011;3504;52.616;13.238;2023-11-22T03:28:22;8.70;;;6.20;;
6928;SDS011;3504;52.616;13.238;2023-11-22T03:33:23;9.83;;;7.10;;
6928;SDS011;3504;52.616;13.238;2023-11-22T03:38:24;9.13;;;6.73;;
6928;SDS011;3504;52.616;13.238;2023-11-22T03:43:25;11.73;;;7.70;;
6928;SDS011;3504;52.616;13.238;2023-11-22T03:48:27;10.70;;;7.10;;
6928;SDS011;3504;52.616;13.238;2023-11-22T03:53:28;11.43;;;6.93;;
6928;SDS011;3504;52.616;13.238;2023-11-22T03:58:29;11.73;;;7.63;;
6928;SDS011;3504;52.616;13.238;2023-11-22T04:03:29;10.87;;;7.10;;
6928;SDS011;3504;52.616;13.238;2023-11-22T04:08:30;10.00;;;7.10;;
6928;SDS011;3504;52.616;13.238;2023-11-22T04:13:30;14.17;;;7.30;;
6928;SDS011;3504;52.616;13.238;2023-11-22T04:18:31;10.27;;;6.90;;
6928;SDS011;3504;52.616;13.238;2023-11-22T04:23:32;9.17;;;6.37;;
6928;SDS011;3504;52.616;13.238;2023-11-22T04:28:33;11.73;;;7.27;;
6928;SDS011;3504;52.616;13.238;2023-11-22T04:33:34;10.23;;;7.27;;
6928;SDS011;3504;52.616;13.238;2023-11-22T04:38:35;12.23;;;7.70;;
6928;SDS011;3504;52.616;13.238;2023-11-22T04:43:35;11.17;;;7.20;;
6928;SDS011;3504;52.616;13.238;2023-11-22T04:48:37;13.83;;;7.30;;
6928;SDS011;3504;52.616;13.238;2023-11-22T04:53:40;11.70;;;7.17;;
6928;SDS011;3504;52.616;13.238;2023-11-22T04:58:42;13.13;;;7.37;;
6928;SDS011;3504;52.616;13.238;2023-11-22T05:03:43;12.40;;;7.60;;
6928;SDS011;3504;52.616;13.238;2023-11-22T05:08:43;11.47;;;7.60;;
6928;SDS011;3504;52.616;13.238;2023-11-22T05:13:44;14.73;;;7.67;;
6928;SDS011;3504;52.616;13.238;2023-11-22T05:18:45;12.23;;;7.43;;
6928;SDS011;3504;52.616;13.238;2023-11-22T05:23:45;9.60;;;6.57;;
6928;SDS011;3504;52.616;13.238;2023-11-22T05:28:46;11.03;;;7.63;;
6928;SDS011;3504;52.616;13.238;2023-11-22T05:33:50;11.53;;;7.30;;
6928;SDS011;3504;52.616;13.238;2023-11-22T05:38:50;12.17;;;7.37;;
6928;SDS011;3504;52.616;13.238;2023-11-22T05:43:51;17.33;;;8.10;;
6928;SDS011;3504;52.616;13.238;2023-11-22T05:48:52;13.17;;;7.67;;
6928;SDS011;3504;52.616;13.238;2023-11-22T05:53:53;14.70;;;7.70;;
6928;SDS011;3504;52.616;13.238;2023-11-22T05:58:53;11.40;;;7.13;;
6928;SDS011;3504;52.616;13.238;2023-11-22T06:03:54;12.30;;;8.07;;
6928;SDS011;3504;52.616;13.238;2023-11-22T06:08:54;14.20;;;7.67;;
6928;SDS011;3504;52.616;13.238;2023-11-22T06:13:55;12.40;;;7.83;;
6928;SDS011;3504;52.616;13.238;2023-11-22T06:18:56;16.87;;;8.37;;
6928;SDS011;3504;52.616;13.238;2023-11-22T06:23:56;13.03;;;8.47;;
6928;SDS011;3504;52.616;13.238;2023-11-22T06:28:58;13.97;;;8.30;;
6928;SDS011;3504;52.616;13.238;2023-11-22T06:33:58;13.83;;;8.47;;
6928;SDS011;3504;52.616;13.238;2023-11-22T06:38:59;12.40;;;8.13;;
6928;SDS011;3504;52.616;13.238;2023-11-22T06:44:00;13.60;;;8.43;;
6928;SDS011;3504;52.616;13.238;2023-11-22T06:49:02;13.03;;;8.50;;
6928;SDS011;3504;52.616;13.238;2023-11-22T06:54:03;12.67;;;7.70;;
6928;SDS011;3504;52.616;13.238;2023-11-22T06:59:03;11.60;;;7.60;;
6928;SDS011;3504;52.616;13.238;2023-11-22T07:04:04;12.30;;;8.10;;
6928;SDS011;3504;52.616;13.238;2023-11-22T07:09:05;15.93;;;9.13;;
6928;SDS011;3504;52.616;13.238;2023-11-22T07:14:09;13.43;;;8.30;;
6928;SDS011;3504;52.616;13.238;2023-11-22T07:19:10;16.30;;;8.87;;
6928;SDS011;3504;52.616;13.238;2023-11-22T07:24:12;15.50;;;9.57;;
6928;SDS011;3504;52.616;13.238;2023-11-22T07:29:15;14.70;;;8.80;;
6928;SDS011;3504;52.616;13.238;2023-11-22T07:34:16;14.40;;;8.83;;
6928;SDS011;3504;52.616;13.238;2023-11-22T07:39:18;14.90;;;8.77;;
6928;SDS011;3504;52.616;13.238;2023-11-22T07:44:21;15.43;;;9.53;;
6928;SDS011;3504;52.616;13.238;2023-11-22T07:49:22;14.80;;;9.10;;
6928;SDS011;3504;52.616;13.238;2023-11-22T07:54:23;13.27;;;8.93;;
6928;SDS011;3504;52.616;13.238;2023-11-22T07:59:23;14.20;;;8.30;;
6928;SDS011;3504;52.616;13.238;2023-11-22T08:04:24;15.23;;;9.13;;
6928;SDS011;3504;52.616;13.238;2023-11-22T08:09:24;14.93;;;9.07;;
6928;SDS011;3504;52.616;13.238;2023-11-22T08:14:25;17.67;;;10.13;;
6928;SDS011;3504;52.616;13.238;2023-11-22T08:19:27;14.53;;;9.33;;
6928;SDS011;3504;52.616;13.238;2023-11-22T08:24:28;15.30;;;9.90;;
6928;SDS011;3504;52.616;13.238;2023-11-22T08:29:28;14.00;;;8.93;;
6928;SDS011;3504;52.616;13.238;2023-11-22T08:34:29;16.77;;;9.27;;
6928;SDS011;3504;52.616;13.238;2023-11-22T08:39:29;16.37;;;9.77;;
6928;SDS011;3504;52.616;13.238;2023-11-22T08:44:30;15.77;;;10.17;;
6928;SDS011;3504;52.616;13.238;2023-11-22T08:49:30;16.87;;;9.53;;
6928;SDS011;3504;52.616;13.238;2023-11-22T08:54:31;18.67;;;9.93;;
6928;SDS011;3504;52.616;13.238;2023-11-22T08:59:31;16.27;;;9.70;;
6928;SDS011;3504;52.616;13.238;2023-11-22T09:04:38;19.20;;;9.60;;
6928;SDS011;3504;52.616;13.238;2023-11-22T09:09:38;16.23;;;9.77;;
6928;SDS011;3504;52.616;13.238;2023-11-22T09:14:41;16.27;;;9.83;;
6928;SDS011;3504;52.616;13.238;2023-11-22T09:19:41;14.97;;;9.13;;
6928;SDS011;3504;52.616;13.238;2023-11-22T09:24:42;13.13;;;9.03;;
6928;SDS011;3504;52.616;13.238;2023-11-22T09:29:45;14.57;;;9.03;;
6928;SDS011;3504;52.616;13.238;2023-11-22T09:34:45;14.87;;;9.43;;
6928;SDS011;3504;52.616;13.238;2023-11-22T09:39:46;14.73;;;8.70;;
6928;SDS011;3504;52.616;13.238;2023-11-22T09:44:46;12.77;;;8.60;;
6928;SDS011;3504;52.616;13.238;2023-11-22T09:49:47;10.50;;;7.50;;
6928;SDS011;3504;52.616;13.238;2023-11-22T09:54:52;12.97;;;8.00;;
6928;SDS011;3504;52.616;13.238;2023-11-22T09:59:53;13.83;;;9.00;;
6928;SDS011;3504;52.616;13.238;2023-11-22T10:04:55;12.17;;;8.07;;
6928;SDS011;3504;52.616;13.238;2023-11-22T10:09:56;12.73;;;8.53;;
6928;SDS011;3504;52.616;13.238;2023-11-22T10:15:13;10.77;;;7.50;;
6928;SDS011;3504;52.616;13.238;2023-11-22T10:20:16;11.97;;;8.23;;
6928;SDS011;3504;52.616;13.238;2023-11-22T10:25:18;12.13;;;7.73;;
6928;SDS011;3504;52.616;13.238;2023-11-22T10:30:19;13.10;;;8.20;;
6928;SDS011;3504;52.616;13.238;2023-11-22T10:35:19;11.03;;;8.03;;
6928;SDS011;3504;52.616;13.238;2023-11-22T10:40:22;14.73;;;8.80;;
6928;SDS011;3504;52.616;13.238;2023-11-22T10:45:25;9.47;;;7.13;;
6928;SDS011;3504;52.616;13.238;2023-11-22T10:50:30;11.33;;;7.70;;
6928;SDS011;3504;52.616;13.238;2023-11-22T10:55:31;12.40;;;8.67;;
6928;SDS011;3504;52.616;13.238;2023-11-22T11:00:32;10.87;;;7.70;;
6928;SDS011;3504;52.616;13.238;2023-11-22T11:05:35;12.37;;;7.90;;
6928;SDS011;3504;52.616;13.238;2023-11-22T11:10:42;10.60;;;7.80;;
6928;SDS011;3504;52.616;13.238;2023-11-22T11:15:45;11.27;;;7.57;;
6928;SDS011;3504;52.616;13.238;2023-11-22T11:20:57;10.97;;;8.10;;
6928;SDS011;3504;52.616;13.238;2023-11-22T11:26:09;10.93;;;8.03;;
6928;SDS011;3504;52.616;13.238;2023-11-22T11:31:16;12.63;;;8.10;;
6928;SDS011;3504;52.616;13.238;2023-11-22T11:41:33;11.60;;;8.30;;
6928;SDS011;3504;52.616;13.238;2023-11-22T11:46:36;12.93;;;8.20;;
6928;SDS011;3504;52.616;13.238;2023-11-22T11:51:38;12.23;;;7.77;;
6928;SDS011;3504;52.616;13.238;2023-11-22T11:56:38;12.57;;;8.40;;
6928;SDS011;3504;52.616;13.238;2023-11-22T12:01:39;14.80;;;9.00;;
6928;SDS011;3504;52.616;13.238;2023-11-22T12:06:39;13.10;;;8.73;;
6928;SDS011;3504;52.616;13.238;2023-11-22T12:11:41;15.47;;;9.17;;
6928;SDS011;3504;52.616;13.238;2023-11-22T12:16:43;14.43;;;9.80;;
6928;SDS011;3504;52.616;13.238;2023-11-22T12:21:48;13.53;;;9.33;;
6928;SDS011;3504;52.616;13.238;2023-11-22T12:26:49;12.40;;;8.70;;
6928;SDS011;3504;52.616;13.238;2023-11-22T12:31:51;14.00;;;8.97;;
6928;SDS011;3504;52.616;13.238;2023-11-22T12:36:53;15.13;;;9.13;;
6928;SDS011;3504;52.616;13.238;2023-11-22T12:41:53;16.33;;;9.87;;
6928;SDS011;3504;52.616;13.238;2023-11-22T12:46:54;14.60;;;8.77;;
6928;SDS011;3504;52.616;13.238;2023-11-22T12:51:59;16.17;;;9.37;;
6928;SDS011;3504;52.616;13.238;2023-11-22T12:57:00;16.40;;;9.70;;
6928;SDS011;3504;52.616;13.238;2023-11-22T13:02:01;14.23;;;9.70;;
6928;SDS011;3504;52.616;13.238;2023-11-22T13:07:02;14.60;;;10.10;;
6928;SDS011;3504;52.616;13.238;2023-11-22T13:12:03;18.30;;;10.87;;
6928;SDS011;3504;52.616;13.238;2023-11-22T13:17:04;16.33;;;10.67;;
6928;SDS011;3504;52.616;13.238;2023-11-22T13:22:06;17.53;;;10.57;;
6928;SDS011;3504;52.616;13.238;2023-11-22T13:27:11;16.20;;;10.57;;
6928;SDS011;3504;52.616;13.238;2023-11-22T13:32:11;16.00;;;10.80;;
6928;SDS011;3504;52.616;13.238;2023-11-22T13:37:12;16.20;;;11.07;;
6928;SDS011;3504;52.616;13.238;2023-11-22T13:42:16;16.63;;;10.67;;
6928;SDS011;3504;52.616;13.238;2023-11-22T13:47:16;13.67;;;10.03;;
6928;SDS011;3504;52.616;13.238;2023-11-22T13:52:17;15.90;;;11.10;;
6928;SDS011;3504;52.616;13.238;2023-11-22T13:57:17;15.30;;;10.63;;
6928;SDS011;3504;52.616;13.238;2023-11-22T14:02:18;19.27;;;10.93;;
6928;SDS011;3504;52.616;13.238;2023-11-22T14:07:18;15.63;;;10.37;;
6928;SDS011;3504;52.616;13.238;2023-11-22T14:12:19;17.43;;;11.40;;
6928;SDS011;3504;52.616;13.238;2023-11-22T14:17:19;17.40;;;10.47;;
6928;SDS011;3504;52.616;13.238;2023-11-22T14:22:21;15.00;;;10.03;;
6928;SDS011;3504;52.616;13.238;2023-11-22T14:27:22;14.80;;;9.70;;
6928;SDS011;3504;52.616;13.238;2023-11-22T14:32:23;16.37;;;9.33;;
6928;SDS011;3504;52.616;13.238;2023-11-22T14:37:23;14.37;;;9.17;;
6928;SDS011;3504;52.616;13.238;2023-11-22T14:42:24;12.53;;;7.93;;
6928;SDS011;3504;52.616;13.238;2023-11-22T14:47:25;13.90;;;8.20;;
6928;SDS011;3504;52.616;13.238;2023-11-22T14:52:30;13.30;;;8.00;;
6928;SDS011;3504;52.616;13.238;2023-11-22T14:57:30;11.83;;;8.20;;
6928;SDS011;3504;52.616;13.238;2023-11-22T15:02:31;10.43;;;7.07;;
6928;SDS011;3504;52.616;13.238;2023-11-22T15:07:32;10.40;;;7.47;;
6928;SDS011;3504;52.616;13.238;2023-11-22T15:12:33;13.13;;;8.00;;
6928;SDS011;3504;52.616;13.238;2023-11-22T15:17:34;14.20;;;8.03;;
6928;SDS011;3504;52.616;13.238;2023-11-22T15:22:35;12.20;;;8.27;;
6928;SDS011;3504;52.616;13.238;2023-11-22T15:27:36;27.93;;;20.57;;
6928;SDS011;3504;52.616;13.238;2023-11-22T15:32:37;20.40;;;14.40;;
6928;SDS011;3504;52.616;13.238;2023-11-22T15:37:37;14.40;;;9.23;;
6928;SDS011;3504;52.616;13.238;2023-11-22T15:42:38;12.93;;;9.13;;
6928;SDS011;3504;52.616;13.238;2023-11-22T15:47:39;13.80;;;9.13;;
6928;SDS011;3504;52.616;13.238;2023-11-22T15:52:40;12.50;;;8.60;;
6928;SDS011;3504;52.616;13.238;2023-11-22T15:57:40;12.47;;;8.57;;
6928;SDS011;3504;52.616;13.238;2023-11-22T16:02:41;14.80;;;8.57;;
6928;SDS011;3504;52.616;13.238;2023-11-22T16:07:41;13.90;;;9.07;;
6928;SDS011;3504;52.616;13.238;2023-11-22T16:12:42;13.50;;;9.23;;
6928;SDS011;3504;52.616;13.238;2023-11-22T16:17:43;13.27;;;9.20;;
6928;SDS011;3504;52.616;13.238;2023-11-22T16:22:43;17.53;;;9.90;;
6928;SDS011;3504;52.616;13.238;2023-11-22T16:27:44;12.80;;;8.50;;
6928;SDS011;3504;52.616;13.238;2023-11-22T16:32:45;15.13;;;9.10;;
6928;SDS011;3504;52.616;13.238;2023-11-22T16:37:46;20.80;;;11.53;;
6928;SDS011;3504;52.616;13.238;2023-11-22T16:42:46;20.83;;;11.13;;
6928;SDS011;3504;52.616;13.238;2023-11-22T16:47:47;15.87;;;9.03;;
6928;SDS011;3504;52.616;13.238;2023-11-22T16:52:47;13.73;;;8.90;;
6928;SDS011;3504;52.616;13.238;2023-11-22T16:57:48;15.33;;;8.70;;
6928;SDS011;3504;52.616;13.238;2023-11-22T17:02:48;13.53;;;8.97;;
6928;SDS011;3504;52.616;13.238;2023-11-22T17:07:49;14.27;;;9.30;;
6928;SDS011;3504;52.616;13.238;2023-11-22T17:12:50;16.50;;;9.50;;
6928;SDS011;3504;52.616;13.238;2023-11-22T17:17:51;15.97;;;9.77;;
6928;SDS011;3504;52.616;13.238;2023-11-22T17:22:51;12.17;;;8.90;;
6928;SDS011;3504;52.616;13.238;2023-11-22T17:27:52;12.77;;;8.63;;
6928;SDS011;3504;52.616;13.238;2023-11-22T17:32:52;13.93;;;8.47;;
6928;SDS011;3504;52.616;13.238;2023-11-22T17:37:53;11.57;;;8.73;;
6928;SDS011;3504;52.616;13.238;2023-11-22T17:42:56;12.20;;;8.67;;
6928;SDS011;3504;52.616;13.238;2023-11-22T17:48:00;13.73;;;8.67;;
6928;SDS011;3504;52.616;13.238;2023-11-22T17:53:01;14.07;;;9.03;;
6928;SDS011;3504;52.616;13.238;2023-11-22T17:58:01;11.97;;;8.30;;
6928;SDS011;3504;52.616;13.238;2023-11-22T18:03:02;14.90;;;8.97;;
6928;SDS011;3504;52.616;13.238;2023-11-22T18:08:04;13.03;;;8.97;;
6928;SDS011;3504;52.616;13.238;2023-11-22T18:13:04;12.90;;;9.10;;
6928;SDS011;3504;52.616;13.238;2023-11-22T18:18:10;12.33;;;8.63;;
6928;SDS011;3504;52.616;13.238;2023-11-22T18:23:11;15.33;;;9.53;;
6928;SDS011;3504;52.616;13.238;2023-11-22T18:28:11;14.70;;;8.83;;
6928;SDS011;3504;52.616;13.238;2023-11-22T18:33:12;13.87;;;9.00;;
6928;SDS011;3504;52.616;13.238;2023-11-22T18:38:12;14.97;;;9.73;;
6928;SDS011;3504;52.616;13.238;2023-11-22T18:43:14;13.43;;;9.10;;
6928;SDS011;3504;52.616;13.238;2023-11-22T18:48:14;16.10;;;9.03;;
6928;SDS011;3504;52.616;13.238;2023-11-22T18:53:16;15.63;;;9.93;;
6928;SDS011;3504;52.616;13.238;2023-11-22T18:58:17;18.83;;;10.93;;
6928;SDS011;3504;52.616;13.238;2023-11-22T19:03:17;17.57;;;10.73;;
6928;SDS011;3504;52.616;13.238;2023-11-22T19:08:18;17.77;;;11.07;;
6928;SDS011;3504;52.616;13.238;2023-11-22T19:13:18;14.93;;;10.53;;
6928;SDS011;3504;52.616;13.238;2023-11-22T19:18:21;18.73;;;10.70;;
6928;SDS011;3504;52.616;13.238;2023-11-22T19:23:21;22.03;;;11.53;;
6928;SDS011;3504;52.616;13.238;2023-11-22T19:28:22;23.20;;;12.97;;
6928;SDS011;3504;52.616;13.238;2023-11-22T19:33:22;19.27;;;13.00;;
6928;SDS011;3504;52.616;13.238;2023-11-22T19:38:23;21.73;;;12.33;;
6928;SDS011;3504;52.616;13.238;2023-11-22T19:43:27;20.27;;;12.80;;
6928;SDS011;3504;52.616;13.238;2023-11-22T19:48:28;19.37;;;11.87;;
6928;SDS011;3504;52.616;13.238;2023-11-22T19:53:28;25.43;;;13.77;;
6928;SDS011;3504;52.616;13.238;2023-11-22T19:58:29;21.00;;;13.60;;
6928;SDS011;3504;52.616;13.238;2023-11-22T20:03:30;19.27;;;13.23;;
6928;SDS011;3504;52.616;13.238;2023-11-22T20:08:30;23.37;;;14.40;;
6928;SDS011;3504;52.616;13.238;2023-11-22T20:13:30;25.73;;;14.17;;
6928;SDS011;3504;52.616;13.238;2023-11-22T20:18:31;25.27;;;14.50;;
6928;SDS011;3504;52.616;13.238;2023-11-22T20:23:31;20.83;;;12.93;;
6928;SDS011;3504;52.616;13.238;2023-11-22T20:28:32;27.37;;;15.83;;
6928;SDS011;3504;52.616;13.238;2023-11-22T20:33:32;27.10;;;15.57;;
6928;SDS011;3504;52.616;13.238;2023-11-22T20:38:33;24.97;;;16.97;;
6928;SDS011;3504;52.616;13.238;2023-11-22T20:43:33;26.97;;;16.00;;
6928;SDS011;3504;52.616;13.238;2023-11-22T20:48:34;25.70;;;16.13;;
6928;SDS011;3504;52.616;13.238;2023-11-22T20:53:35;27.43;;;15.60;;
6928;SDS011;3504;52.616;13.238;2023-11-22T20:58:36;26.53;;;16.23;;
6928;SDS011;3504;52.616;13.238;2023-11-22T21:03:37;28.40;;;15.90;;
6928;SDS011;3504;52.616;13.238;2023-11-22T21:08:38;26.83;;;16.03;;
6928;SDS011;3504;52.616;13.238;2023-11-22T21:13:38;27.90;;;17.20;;
6928;SDS011;3504;52.616;13.238;2023-11-22T21:18:39;24.40;;;16.17;;
6928;SDS011;3504;52.616;13.238;2023-11-22T21:23:41;25.13;;;15.57;;
6928;SDS011;3504;52.616;13.238;2023-11-22T21:28:41;24.43;;;16.00;;
6928;SDS011;3504;52.616;13.238;2023-11-22T21:33:42;23.40;;;15.50;;
6928;SDS011;3504;52.616;13.238;2023-11-22T21:38:42;27.33;;;16.50;;
6928;SDS011;3504;52.616;13.238;2023-11-22T21:43:46;24.47;;;15.63;;
6928;SDS011;3504;52.616;13.238;2023-11-22T21:48:48;27.03;;;16.10;;
6928;SDS011;3504;52.616;13.238;2023-11-22T21:53:48;27.53;;;16.90;;
6928;SDS011;3504;52.616;13.238;2023-11-22T21:58:50;27.30;;;15.33;;
6928;SDS011;3504;52.616;13.238;2023-11-22T22:03:51;24.30;;;15.40;;
6928;SDS011;3504;52.616;13.238;2023-11-22T22:08:51;26.20;;;16.23;;
6928;SDS011;3504;52.616;13.238;2023-11-22T22:13:52;25.47;;;15.43;;
6928;SDS011;3504;52.616;13.238;2023-11-22T22:18:52;27.40;;;16.93;;
6928;SDS011;3504;52.616;13.238;2023-11-22T22:23:53;22.27;;;15.03;;
6928;SDS011;3504;52.616;13.238;2023-11-22T22:28:53;23.67;;;15.40;;
6928;SDS011;3504;52.616;13.238;2023-11-22T22:33:54;25.67;;;16.37;;
6928;SDS011;3504;52.616;13.238;2023-11-22T22:38:54;21.97;;;14.57;;
6928;SDS011;3504;52.616;13.238;2023-11-22T22:43:55;22.90;;;14.97;;
6928;SDS011;3504;52.616;13.238;2023-11-22T22:48:55;21.73;;;14.70;;
6928;SDS011;3504;52.616;13.238;2023-11-22T22:53:56;20.70;;;13.17;;
6928;SDS011;3504;52.616;13.238;2023-11-22T22:58:56;19.53;;;13.13;;
6928;SDS011;3504;52.616;13.238;2023-11-22T23:03:57;21.97;;;13.90;;
6928;SDS011;3504;52.616;13.238;2023-11-22T23:08:57;19.77;;;13.67;;
6928;SDS011;3504;52.616;13.238;2023-11-22T23:13:57;18.80;;;12.57;;
6928;SDS011;3504;52.616;13.238;2023-11-22T23:18:58;16.77;;;12.37;;
6928;SDS011;3504;52.616;13.238;2023-11-22T23:23:59;16.80;;;11.93;;
6928;SDS011;3504;52.616;13.238;2023-11-22T23:29:00;15.83;;;11.73;;
6928;SDS011;3504;52.616;13.238;2023-11-22T23:34:00;15.17;;;11.00;;
6928;SDS011;3504;52.616;13.238;2023-11-22T23:39:01;17.53;;;11.70;;
6928;SDS011;3504;52.616;13.238;2023-11-22T23:44:03;16.50;;;11.53;;
6928;SDS011;3504;52.616;13.238;2023-11-22T23:49:05;15.50;;;11.40;;
6928;SDS011;3504;52.616;13.238;2023-11-22T23:54:06;17.80;;;11.67;;
6928;SDS011;3504;52.616;13.238;2023-11-22T23:59:09;14.57;;;10.73;;
